sensor_id;sensor_type;location;lat;lon;timestamp;pressure;altitude;pressure_sealevel;temperature;humidity
12963;BME280;6546;49.882;8.666;2023-03-04T00:01:21;100810.53;;;2.88;67.17
12963;BME280;6546;49.882;8.666;2023-03-04T00:03:48;100808.59;;;2.92;66.90
12963;BME280;6546;49.882;8.666;2023-03-04T00:06:15;100810.53;;;2.88;67.12
12963;BME280;6546;49.882;8.666;2023-03-04T00:08:41;100813.38;;;2.84;67.33
12963;BME280;6546;49.882;8.666;2023-03-04T00:11:08;100814.03;;;2.87;67.13
12963;BME280;6546;49.882;8.666;2023-03-04T00:13:35;100811.66;;;2.84;67.04
12963;BME280;6546;49.882;8.666;2023-03-04T00:16:03;100811.03;;;2.81;67.40
12963;BME280;6546;49.882;8.666;2023-03-04T00:18:30;100817.22;;;2.77;67.64
12963;BME280;6546;49.882;8.666;2023-03-04T00:20:57;100816.22;;;2.79;67.68
12963;BME280;6546;49.882;8.666;2023-03-04T00:23:23;100818.59;;;2.82;67.60
12963;BME280;6546;49.882;8.666;2023-03-04T00:25:50;100807.09;;;2.75;67.53
12963;BME280;6546;49.882;8.666;2023-03-04T00:28:18;100810.00;;;2.83;67.39
12963;BME280;6546;49.882;8.666;2023-03-04T00:30:44;100814.75;;;2.75;67.35
12963;BME280;6546;49.882;8.666;2023-03-04T00:33:13;100807.84;;;2.77;67.19
12963;BME280;6546;49.882;8.666;2023-03-04T00:35:40;100816.88;;;2.69;67.65
12963;BME280;6546;49.882;8.666;2023-03-04T00:38:06;100813.59;;;2.67;67.58
12963;BME280;6546;49.882;8.666;2023-03-04T00:40:33;100812.75;;;2.66;67.36
12963;BME280;6546;49.882;8.666;2023-03-04T00:43:00;100815.69;;;2.60;67.95
12963;BME280;6546;49.882;8.666;2023-03-04T00:45:27;100808.22;;;2.57;68.09
12963;BME280;6546;49.882;8.666;2023-03-04T00:47:54;100813.50;;;2.54;68.28
12963;BME280;6546;49.882;8.666;2023-03-04T00:50:21;100809.31;;;2.53;68.20
12963;BME280;6546;49.882;8.666;2023-03-04T00:52:48;100815.97;;;2.55;68.24
12963;BME280;6546;49.882;8.666;2023-03-04T00:55:15;100822.47;;;2.47;68.42
12963;BME280;6546;49.882;8.666;2023-03-04T00:57:41;100812.41;;;2.44;68.41
12963;BME280;6546;49.882;8.666;2023-03-04T01:00:09;100815.88;;;2.43;68.51
12963;BME280;6546;49.882;8.666;2023-03-04T01:02:36;100819.91;;;2.47;68.36
12963;BME280;6546;49.882;8.666;2023-03-04T01:05:04;100813.97;;;2.46;68.50
12963;BME280;6546;49.882;8.666;2023-03-04T01:07:32;100809.78;;;2.45;68.46
12963;BME280;6546;49.882;8.666;2023-03-04T01:09:59;100805.97;;;2.38;68.80
12963;BME280;6546;49.882;8.666;2023-03-04T01:12:26;100803.03;;;2.44;68.44
12963;BME280;6546;49.882;8.666;2023-03-04T01:14:52;100807.31;;;2.44;68.63
12963;BME280;6546;49.882;8.666;2023-03-04T01:17:19;100811.78;;;2.40;68.60
12963;BME280;6546;49.882;8.666;2023-03-04T01:19:46;100804.94;;;2.41;68.57
12963;BME280;6546;49.882;8.666;2023-03-04T01:22:12;100802.13;;;2.31;69.17
12963;BME280;6546;49.882;8.666;2023-03-04T01:24:42;100801.75;;;2.37;68.70
12963;BME280;6546;49.882;8.666;2023-03-04T01:27:08;100795.81;;;2.37;68.93
12963;BME280;6546;49.882;8.666;2023-03-04T01:29:35;100796.00;;;2.34;68.79
12963;BME280;6546;49.882;8.666;2023-03-04T01:32:02;100794.19;;;2.36;68.75
12963;BME280;6546;49.882;8.666;2023-03-04T01:34:29;100794.19;;;2.36;68.74
12963;BME280;6546;49.882;8.666;2023-03-04T01:36:55;100793.75;;;2.29;68.65
12963;BME280;6546;49.882;8.666;2023-03-04T01:39:22;100782.88;;;2.26;68.43
12963;BME280;6546;49.882;8.666;2023-03-04T01:41:50;100785.69;;;2.21;68.30
12963;BME280;6546;49.882;8.666;2023-03-04T01:44:17;100785.88;;;2.18;68.31
12963;BME280;6546;49.882;8.666;2023-03-04T01:46:47;100781.78;;;2.16;68.60
12963;BME280;6546;49.882;8.666;2023-03-04T01:49:15;100775.47;;;2.07;68.91
12963;BME280;6546;49.882;8.666;2023-03-04T01:51:43;100760.63;;;1.99;69.06
12963;BME280;6546;49.882;8.666;2023-03-04T01:54:11;100768.44;;;2.10;69.10
12963;BME280;6546;49.882;8.666;2023-03-04T01:56:38;100762.69;;;2.07;69.27
12963;BME280;6546;49.882;8.666;2023-03-04T01:59:08;100770.09;;;2.11;69.12
12963;BME280;6546;49.882;8.666;2023-03-04T02:01:37;100769.00;;;2.16;68.83
12963;BME280;6546;49.882;8.666;2023-03-04T02:04:05;100772.47;;;2.15;69.00
12963;BME280;6546;49.882;8.666;2023-03-04T02:06:33;100759.88;;;2.11;68.98
12963;BME280;6546;49.882;8.666;2023-03-04T02:09:00;100764.97;;;2.11;69.32
12963;BME280;6546;49.882;8.666;2023-03-04T02:11:28;100763.91;;;2.16;68.95
12963;BME280;6546;49.882;8.666;2023-03-04T02:13:55;100755.88;;;2.22;68.91
12963;BME280;6546;49.882;8.666;2023-03-04T02:16:23;100755.03;;;2.21;68.91
12963;BME280;6546;49.882;8.666;2023-03-04T02:18:50;100759.63;;;2.16;69.04
12963;BME280;6546;49.882;8.666;2023-03-04T02:21:20;100756.59;;;2.24;68.77
12963;BME280;6546;49.882;8.666;2023-03-04T02:23:54;100757.34;;;2.26;68.89
12963;BME280;6546;49.882;8.666;2023-03-04T02:26:26;100751.41;;;2.25;68.95
12963;BME280;6546;49.882;8.666;2023-03-04T02:28:54;100747.94;;;2.26;68.87
12963;BME280;6546;49.882;8.666;2023-03-04T02:31:24;100748.34;;;2.33;68.64
12963;BME280;6546;49.882;8.666;2023-03-04T02:33:53;100744.44;;;2.27;69.23
12963;BME280;6546;49.882;8.666;2023-03-04T02:36:21;100747.75;;;2.29;68.83
12963;BME280;6546;49.882;8.666;2023-03-04T02:38:48;100737.53;;;2.29;68.78
12963;BME280;6546;49.882;8.666;2023-03-04T02:41:18;100743.25;;;2.33;68.77
12963;BME280;6546;49.882;8.666;2023-03-04T02:43:49;100738.97;;;2.33;69.06
12963;BME280;6546;49.882;8.666;2023-03-04T02:46:16;100738.06;;;2.34;69.06
12963;BME280;6546;49.882;8.666;2023-03-04T02:48:43;100729.38;;;2.37;69.04
12963;BME280;6546;49.882;8.666;2023-03-04T02:51:09;100737.16;;;2.35;69.16
12963;BME280;6546;49.882;8.666;2023-03-04T02:53:36;100722.66;;;2.36;69.09
12963;BME280;6546;49.882;8.666;2023-03-04T02:56:04;100728.47;;;2.38;69.27
12963;BME280;6546;49.882;8.666;2023-03-04T02:58:31;100725.72;;;2.41;69.36
12963;BME280;6546;49.882;8.666;2023-03-04T03:00:59;100732.13;;;2.48;69.06
12963;BME280;6546;49.882;8.666;2023-03-04T03:03:25;100735.19;;;2.53;68.75
12963;BME280;6546;49.882;8.666;2023-03-04T03:05:52;100742.97;;;2.51;68.87
12963;BME280;6546;49.882;8.666;2023-03-04T03:08:19;100731.53;;;2.57;68.92
12963;BME280;6546;49.882;8.666;2023-03-04T03:10:46;100731.72;;;2.54;68.67
12963;BME280;6546;49.882;8.666;2023-03-04T03:13:13;100731.72;;;2.54;69.04
12963;BME280;6546;49.882;8.666;2023-03-04T03:15:39;100727.25;;;2.57;69.05
12963;BME280;6546;49.882;8.666;2023-03-04T03:18:08;100736.47;;;2.60;68.85
12963;BME280;6546;49.882;8.666;2023-03-04T03:20:35;100729.06;;;2.55;68.77
12963;BME280;6546;49.882;8.666;2023-03-04T03:23:03;100731.72;;;2.54;69.09
12963;BME280;6546;49.882;8.666;2023-03-04T03:25:30;100722.72;;;2.48;69.24
12963;BME280;6546;49.882;8.666;2023-03-04T03:27:56;100725.53;;;2.44;69.51
12963;BME280;6546;49.882;8.666;2023-03-04T03:30:23;100721.88;;;2.48;69.53
12963;BME280;6546;49.882;8.666;2023-03-04T03:32:50;100718.25;;;2.52;68.97
12963;BME280;6546;49.882;8.666;2023-03-04T03:35:18;100723.50;;;2.49;69.37
12963;BME280;6546;49.882;8.666;2023-03-04T03:37:45;100716.78;;;2.48;69.26
12963;BME280;6546;49.882;8.666;2023-03-04T03:40:13;100718.25;;;2.52;69.30
12963;BME280;6546;49.882;8.666;2023-03-04T03:42:40;100716.59;;;2.51;69.61
12963;BME280;6546;49.882;8.666;2023-03-04T03:45:07;100710.66;;;2.50;69.72
12963;BME280;6546;49.882;8.666;2023-03-04T03:47:34;100714.75;;;2.53;69.36
12963;BME280;6546;49.882;8.666;2023-03-04T03:50:00;100724.88;;;2.54;69.40
12963;BME280;6546;49.882;8.666;2023-03-04T03:52:28;100720.69;;;2.53;69.49
12963;BME280;6546;49.882;8.666;2023-03-04T03:54:55;100723.94;;;2.55;69.43
12963;BME280;6546;49.882;8.666;2023-03-04T03:57:22;100716.00;;;2.60;69.34
12963;BME280;6546;49.882;8.666;2023-03-04T03:59:48;100720.75;;;2.66;69.24
12963;BME280;6546;49.882;8.666;2023-03-04T04:02:15;100724.94;;;2.67;69.21
12963;BME280;6546;49.882;8.666;2023-03-04T04:04:41;100717.09;;;2.70;68.70
12963;BME280;6546;49.882;8.666;2023-03-04T04:07:08;100715.03;;;2.75;68.52
12963;BME280;6546;49.882;8.666;2023-03-04T04:09:36;100714.13;;;2.76;68.56
12963;BME280;6546;49.882;8.666;2023-03-04T04:12:03;100711.78;;;2.73;68.49
12963;BME280;6546;49.882;8.666;2023-03-04T04:14:30;100710.88;;;2.74;68.59
12963;BME280;6546;49.882;8.666;2023-03-04T04:16:57;100707.88;;;2.68;68.95
12963;BME280;6546;49.882;8.666;2023-03-04T04:19:24;100704.88;;;2.61;68.87
12963;BME280;6546;49.882;8.666;2023-03-04T04:21:51;100723.66;;;2.74;68.60
12963;BME280;6546;49.882;8.666;2023-03-04T04:24:17;100721.47;;;2.68;68.77
12963;BME280;6546;49.882;8.666;2023-03-04T04:26:46;100715.97;;;2.74;68.54
12963;BME280;6546;49.882;8.666;2023-03-04T04:29:13;100719.63;;;2.70;68.87
12963;BME280;6546;49.882;8.666;2023-03-04T04:31:40;100713.44;;;2.74;69.05
12963;BME280;6546;49.882;8.666;2023-03-04T04:34:07;100715.69;;;2.79;69.06
12963;BME280;6546;49.882;8.666;2023-03-04T04:36:34;100717.41;;;2.78;69.23
12963;BME280;6546;49.882;8.666;2023-03-04T04:39:01;100705.00;;;2.72;69.55
12963;BME280;6546;49.882;8.666;2023-03-04T04:41:30;100707.91;;;2.80;69.56
12963;BME280;6546;49.882;8.666;2023-03-04T04:43:58;100704.44;;;2.81;69.33
12963;BME280;6546;49.882;8.666;2023-03-04T04:46:25;100717.75;;;2.86;70.15
12963;BME280;6546;49.882;8.666;2023-03-04T04:48:52;100715.31;;;2.97;69.31
12963;BME280;6546;49.882;8.666;2023-03-04T04:51:19;100712.44;;;2.89;69.43
12963;BME280;6546;49.882;8.666;2023-03-04T04:53:46;100701.13;;;2.93;69.44
12963;BME280;6546;49.882;8.666;2023-03-04T04:56:16;100712.75;;;2.97;69.27
12963;BME280;6546;49.882;8.666;2023-03-04T04:58:43;100711.34;;;2.93;69.40
12963;BME280;6546;49.882;8.666;2023-03-04T05:01:11;100705.91;;;2.98;68.94
12963;BME280;6546;49.882;8.666;2023-03-04T05:03:39;100702.66;;;2.96;69.03
12963;BME280;6546;49.882;8.666;2023-03-04T05:06:08;100710.63;;;3.04;68.89
12963;BME280;6546;49.882;8.666;2023-03-04T05:08:35;100707.16;;;3.05;68.83
12963;BME280;6546;49.882;8.666;2023-03-04T05:11:02;100713.31;;;3.02;68.67
12963;BME280;6546;49.882;8.666;2023-03-04T05:13:29;100706.66;;;3.00;68.89
12963;BME280;6546;49.882;8.666;2023-03-04T05:15:57;100707.47;;;3.00;69.00
12963;BME280;6546;49.882;8.666;2023-03-04T05:18:26;100704.09;;;3.00;69.04
12963;BME280;6546;49.882;8.666;2023-03-04T05:20:54;100704.63;;;3.05;68.50
12963;BME280;6546;49.882;8.666;2023-03-04T05:23:20;100704.94;;;3.00;68.78
12963;BME280;6546;49.882;8.666;2023-03-04T05:25:47;100704.09;;;3.00;68.71
12963;BME280;6546;49.882;8.666;2023-03-04T05:28:14;100698.34;;;2.96;68.66
12963;BME280;6546;49.882;8.666;2023-03-04T05:30:42;100696.31;;;3.01;68.48
12963;BME280;6546;49.882;8.666;2023-03-04T05:33:10;100698.16;;;2.99;68.50
12963;BME280;6546;49.882;8.666;2023-03-04T05:35:39;100691.41;;;2.98;68.61
12963;BME280;6546;49.882;8.666;2023-03-04T05:38:08;100704.72;;;3.03;68.60
12963;BME280;6546;49.882;8.666;2023-03-04T05:40:35;100706.25;;;3.06;68.66
12963;BME280;6546;49.882;8.666;2023-03-04T05:43:02;100704.72;;;3.03;68.50
12963;BME280;6546;49.882;8.666;2023-03-04T05:45:29;100710.03;;;3.00;68.64
12963;BME280;6546;49.882;8.666;2023-03-04T05:47:56;100703.09;;;3.02;68.47
12963;BME280;6546;49.882;8.666;2023-03-04T05:50:22;100701.97;;;3.06;68.53
12963;BME280;6546;49.882;8.666;2023-03-04T05:52:51;100709.53;;;3.08;68.65
12963;BME280;6546;49.882;8.666;2023-03-04T05:55:18;100699.81;;;3.00;68.57
12963;BME280;6546;49.882;8.666;2023-03-04T05:57:45;100704.63;;;3.05;68.53
12963;BME280;6546;49.882;8.666;2023-03-04T06:00:14;100710.47;;;3.07;68.71
12963;BME280;6546;49.882;8.666;2023-03-04T06:02:42;100693.25;;;2.96;68.63
12963;BME280;6546;49.882;8.666;2023-03-04T06:05:12;100711.59;;;3.15;68.20
12963;BME280;6546;49.882;8.666;2023-03-04T06:07:40;100713.75;;;3.09;68.28
12963;BME280;6546;49.882;8.666;2023-03-04T06:10:10;100711.81;;;3.12;68.21
12963;BME280;6546;49.882;8.666;2023-03-04T06:12:38;100713.19;;;3.04;68.45
12963;BME280;6546;49.882;8.666;2023-03-04T06:15:05;100713.31;;;3.02;68.61
12963;BME280;6546;49.882;8.666;2023-03-04T06:17:34;100701.94;;;2.94;68.34
12963;BME280;6546;49.882;8.666;2023-03-04T06:20:01;100728.47;;;3.05;68.51
12963;BME280;6546;49.882;8.666;2023-03-04T06:22:28;100722.53;;;3.05;68.77
12963;BME280;6546;49.882;8.666;2023-03-04T06:24:55;100727.25;;;3.11;68.61
12963;BME280;6546;49.882;8.666;2023-03-04T06:27:23;100732.16;;;3.14;68.28
12963;BME280;6546;49.882;8.666;2023-03-04T06:29:49;100734.81;;;3.12;68.62
12963;BME280;6546;49.882;8.666;2023-03-04T06:32:16;100734.44;;;3.18;68.72
12963;BME280;6546;49.882;8.666;2023-03-04T06:34:43;100735.13;;;3.21;68.58
12963;BME280;6546;49.882;8.666;2023-03-04T06:37:10;100734.44;;;3.18;68.46
12963;BME280;6546;49.882;8.666;2023-03-04T06:39:36;100733.59;;;3.18;68.45
12963;BME280;6546;49.882;8.666;2023-03-04T06:42:03;100745.69;;;3.16;68.72
12963;BME280;6546;49.882;8.666;2023-03-04T06:44:31;100745.50;;;3.19;68.15
12963;BME280;6546;49.882;8.666;2023-03-04T06:46:58;100749.06;;;3.16;68.35
12963;BME280;6546;49.882;8.666;2023-03-04T06:49:24;100766.88;;;3.18;68.27
12963;BME280;6546;49.882;8.666;2023-03-04T06:51:51;100761.75;;;3.18;68.09
12963;BME280;6546;49.882;8.666;2023-03-04T06:54:18;100761.66;;;3.20;68.19
12963;BME280;6546;49.882;8.666;2023-03-04T06:56:45;100755.81;;;3.17;68.16
12963;BME280;6546;49.882;8.666;2023-03-04T06:59:12;100764.94;;;3.22;68.02
12963;BME280;6546;49.882;8.666;2023-03-04T07:01:40;100761.88;;;3.16;68.39
12963;BME280;6546;49.882;8.666;2023-03-04T07:04:07;100756.44;;;3.21;68.41
12963;BME280;6546;49.882;8.666;2023-03-04T07:06:34;100762.19;;;3.25;68.22
12963;BME280;6546;49.882;8.666;2023-03-04T07:09:01;100762.59;;;3.31;67.81
12963;BME280;6546;49.882;8.666;2023-03-04T07:11:27;100764.53;;;3.28;68.13
12963;BME280;6546;49.882;8.666;2023-03-04T07:13:54;100765.78;;;3.35;67.83
12963;BME280;6546;49.882;8.666;2023-03-04T07:16:21;100767.44;;;3.36;67.94
12963;BME280;6546;49.882;8.666;2023-03-04T07:18:50;100770.78;;;3.36;67.64
12963;BME280;6546;49.882;8.666;2023-03-04T07:21:17;100765.09;;;3.33;67.42
12963;BME280;6546;49.882;8.666;2023-03-04T07:23:44;100776.84;;;3.35;67.93
12963;BME280;6546;49.882;8.666;2023-03-04T07:26:11;100771.53;;;3.38;67.69
12963;BME280;6546;49.882;8.666;2023-03-04T07:28:38;100773.19;;;3.39;67.79
12963;BME280;6546;49.882;8.666;2023-03-04T07:31:08;100759.75;;;3.36;67.48
12963;BME280;6546;49.882;8.666;2023-03-04T07:33:35;100773.22;;;3.52;67.43
12963;BME280;6546;49.882;8.666;2023-03-04T07:36:03;100767.88;;;3.55;67.34
12963;BME280;6546;49.882;8.666;2023-03-04T07:38:30;100775.56;;;3.55;67.51
12963;BME280;6546;49.882;8.666;2023-03-04T07:40:57;100772.81;;;3.58;67.42
12963;BME280;6546;49.882;8.666;2023-03-04T07:43:24;100766.66;;;3.60;67.42
12963;BME280;6546;49.882;8.666;2023-03-04T07:45:51;100764.38;;;3.56;67.22
12963;BME280;6546;49.882;8.666;2023-03-04T07:48:17;100786.03;;;3.64;67.10
12963;BME280;6546;49.882;8.666;2023-03-04T07:50:44;100780.78;;;3.66;67.20
12963;BME280;6546;49.882;8.666;2023-03-04T07:53:12;100784.88;;;3.68;66.78
12963;BME280;6546;49.882;8.666;2023-03-04T07:55:38;100783.16;;;3.69;66.65
12963;BME280;6546;49.882;8.666;2023-03-04T07:58:05;100795.03;;;3.70;66.12
12963;BME280;6546;49.882;8.666;2023-03-04T08:00:32;100794.31;;;3.68;66.09
12963;BME280;6546;49.882;8.666;2023-03-04T08:02:58;100793.31;;;3.70;66.02
12963;BME280;6546;49.882;8.666;2023-03-04T08:05:25;100791.78;;;3.68;66.02
12963;BME280;6546;49.882;8.666;2023-03-04T08:07:52;100792.91;;;3.77;65.57
12963;BME280;6546;49.882;8.666;2023-03-04T08:10:23;100786.94;;;3.76;65.79
12963;BME280;6546;49.882;8.666;2023-03-04T08:12:50;100793.59;;;3.79;65.79
12963;BME280;6546;49.882;8.666;2023-03-04T08:15:16;100792.59;;;3.81;65.82
12963;BME280;6546;49.882;8.666;2023-03-04T08:17:43;100794.97;;;3.84;65.88
12963;BME280;6546;49.882;8.666;2023-03-04T08:20:11;100799.88;;;3.87;65.88
12963;BME280;6546;49.882;8.666;2023-03-04T08:22:39;100791.03;;;3.91;66.00
12963;BME280;6546;49.882;8.666;2023-03-04T08:25:08;100797.72;;;3.94;65.62
12963;BME280;6546;49.882;8.666;2023-03-04T08:27:39;100799.47;;;3.93;64.99
12963;BME280;6546;49.882;8.666;2023-03-04T08:30:13;100799.25;;;3.96;65.44
12963;BME280;6546;49.882;8.666;2023-03-04T08:32:47;100797.41;;;3.98;65.06
12963;BME280;6546;49.882;8.666;2023-03-04T08:35:26;100805.63;;;4.03;64.77
12963;BME280;6546;49.882;8.666;2023-03-04T08:37:53;100807.88;;;3.95;64.68
12963;BME280;6546;49.882;8.666;2023-03-04T08:40:20;100803.47;;;3.97;64.80
12963;BME280;6546;49.882;8.666;2023-03-04T08:42:49;100807.44;;;4.01;64.87
12963;BME280;6546;49.882;8.666;2023-03-04T08:45:15;100805.63;;;4.03;64.75
12963;BME280;6546;49.882;8.666;2023-03-04T08:47:42;100806.63;;;4.01;64.79
12963;BME280;6546;49.882;8.666;2023-03-04T08:50:10;100810.75;;;4.03;64.66
12963;BME280;6546;49.882;8.666;2023-03-04T08:52:36;100802.53;;;3.98;64.58
12963;BME280;6546;49.882;8.666;2023-03-04T08:55:03;100819.66;;;4.10;64.67
12963;BME280;6546;49.882;8.666;2023-03-04T08:57:30;100816.69;;;4.16;64.49
12963;BME280;6546;49.882;8.666;2023-03-04T08:59:58;100805.63;;;4.16;64.67
12963;BME280;6546;49.882;8.666;2023-03-04T09:02:25;100818.53;;;4.14;64.79
12963;BME280;6546;49.882;8.666;2023-03-04T09:04:51;100807.16;;;4.18;64.27
12963;BME280;6546;49.882;8.666;2023-03-04T09:07:18;100812.06;;;4.21;64.60
12963;BME280;6546;49.882;8.666;2023-03-04T09:09:45;100807.84;;;4.20;64.07
12963;BME280;6546;49.882;8.666;2023-03-04T09:12:12;100808.59;;;4.22;64.23
12963;BME280;6546;49.882;8.666;2023-03-04T09:14:38;100809.50;;;4.21;63.94
12963;BME280;6546;49.882;8.666;2023-03-04T09:17:06;100814.84;;;4.18;64.26
12963;BME280;6546;49.882;8.666;2023-03-04T09:19:34;100806.03;;;4.22;63.98
12963;BME280;6546;49.882;8.666;2023-03-04T09:22:00;100808.25;;;4.27;64.34
12963;BME280;6546;49.882;8.666;2023-03-04T09:24:27;100803.47;;;4.35;63.93
12963;BME280;6546;49.882;8.666;2023-03-04T09:26:54;100804.97;;;4.38;63.64
12963;BME280;6546;49.882;8.666;2023-03-04T09:29:21;100803.84;;;4.42;63.42
12963;BME280;6546;49.882;8.666;2023-03-04T09:31:49;100799.44;;;4.44;63.52
12963;BME280;6546;49.882;8.666;2023-03-04T09:34:17;100803.31;;;4.49;63.10
12963;BME280;6546;49.882;8.666;2023-03-04T09:36:45;100804.06;;;4.51;63.15
12963;BME280;6546;49.882;8.666;2023-03-04T09:39:14;100803.50;;;4.59;62.42
12963;BME280;6546;49.882;8.666;2023-03-04T09:41:43;100805.75;;;4.63;62.30
12963;BME280;6546;49.882;8.666;2023-03-04T09:44:21;100798.97;;;4.62;62.19
12963;BME280;6546;49.882;8.666;2023-03-04T09:46:50;100809.16;;;4.64;62.18
12963;BME280;6546;49.882;8.666;2023-03-04T09:49:18;100798.59;;;4.68;61.88
12963;BME280;6546;49.882;8.666;2023-03-04T09:51:51;100796.59;;;4.72;62.07
12963;BME280;6546;49.882;8.666;2023-03-04T09:54:29;100798.16;;;4.74;61.62
12963;BME280;6546;49.882;8.666;2023-03-04T09:57:03;100799.69;;;4.77;61.87
12963;BME280;6546;49.882;8.666;2023-03-04T09:59:41;100797.94;;;4.78;61.68
12963;BME280;6546;49.882;8.666;2023-03-04T10:02:17;100795.84;;;4.83;62.38
12963;BME280;6546;49.882;8.666;2023-03-04T10:04:49;100795.22;;;4.92;61.77
12963;BME280;6546;49.882;8.666;2023-03-04T10:07:20;100799.09;;;4.97;60.70
12963;BME280;6546;49.882;8.666;2023-03-04T10:09:50;100792.22;;;4.98;60.68
12963;BME280;6546;49.882;8.666;2023-03-04T10:12:22;100796.72;;;5.07;60.19
12963;BME280;6546;49.882;8.666;2023-03-04T10:14:52;100798.94;;;5.11;59.74
12963;BME280;6546;49.882;8.666;2023-03-04T10:17:23;100793.25;;;5.19;58.92
12963;BME280;6546;49.882;8.666;2023-03-04T10:20:02;100790.56;;;5.20;58.17
12963;BME280;6546;49.882;8.666;2023-03-04T10:22:34;100790.47;;;5.22;58.07
12963;BME280;6546;49.882;8.666;2023-03-04T10:25:13;100797.63;;;5.29;58.04
12963;BME280;6546;49.882;8.666;2023-03-04T10:27:41;100792.97;;;5.35;58.48
12963;BME280;6546;49.882;8.666;2023-03-04T10:30:17;100790.69;;;5.43;57.94
12963;BME280;6546;49.882;8.666;2023-03-04T10:32:46;100794.66;;;5.47;57.95
12963;BME280;6546;49.882;8.666;2023-03-04T10:35:15;100795.25;;;5.50;57.97
12963;BME280;6546;49.882;8.666;2023-03-04T10:37:45;100788.38;;;5.51;57.97
12963;BME280;6546;49.882;8.666;2023-03-04T10:40:21;100787.44;;;5.52;58.60
12963;BME280;6546;49.882;8.666;2023-03-04T10:42:50;100783.00;;;5.54;58.75
12963;BME280;6546;49.882;8.666;2023-03-04T10:45:23;100783.50;;;5.59;58.58
12963;BME280;6546;49.882;8.666;2023-03-04T10:47:53;100785.00;;;5.61;58.16
12963;BME280;6546;49.882;8.666;2023-03-04T10:50:24;100781.31;;;5.65;58.11
12963;BME280;6546;49.882;8.666;2023-03-04T10:52:51;100784.44;;;5.69;58.23
12963;BME280;6546;49.882;8.666;2023-03-04T10:55:23;100785.25;;;5.69;58.40
12963;BME280;6546;49.882;8.666;2023-03-04T10:57:53;100772.41;;;5.69;58.67
12963;BME280;6546;49.882;8.666;2023-03-04T11:00:26;100772.19;;;5.72;59.06
12963;BME280;6546;49.882;8.666;2023-03-04T11:03:24;100771.94;;;5.75;58.91
12963;BME280;6546;49.882;8.666;2023-03-04T11:06:03;100767.63;;;5.76;58.77
12963;BME280;6546;49.882;8.666;2023-03-04T11:08:30;100770.22;;;5.76;58.96
12963;BME280;6546;49.882;8.666;2023-03-04T11:10:57;100770.09;;;5.77;59.33
12963;BME280;6546;49.882;8.666;2023-03-04T11:13:25;100754.47;;;5.80;59.14
12963;BME280;6546;49.882;8.666;2023-03-04T11:15:54;100763.69;;;5.83;59.41
12963;BME280;6546;49.882;8.666;2023-03-04T11:18:23;100759.25;;;5.85;58.92
12963;BME280;6546;49.882;8.666;2023-03-04T11:20:56;100750.63;;;5.86;58.79
12963;BME280;6546;49.882;8.666;2023-03-04T11:23:32;100748.06;;;5.86;59.24
12963;BME280;6546;49.882;8.666;2023-03-04T11:26:03;100746.78;;;5.92;58.84
12963;BME280;6546;49.882;8.666;2023-03-04T11:28:37;100732.41;;;5.89;59.12
12963;BME280;6546;49.882;8.666;2023-03-04T11:31:11;100745.16;;;5.91;58.91
12963;BME280;6546;49.882;8.666;2023-03-04T11:33:43;100739.44;;;5.87;58.67
12963;BME280;6546;49.882;8.666;2023-03-04T11:36:24;100747.00;;;5.89;58.91
12963;BME280;6546;49.882;8.666;2023-03-04T11:38:55;100736.88;;;5.87;58.65
12963;BME280;6546;49.882;8.666;2023-03-04T11:41:25;100738.81;;;5.83;58.67
12963;BME280;6546;49.882;8.666;2023-03-04T11:43:57;100735.66;;;5.80;59.71
12963;BME280;6546;49.882;8.666;2023-03-04T11:46:48;100736.34;;;5.82;59.12
12963;BME280;6546;49.882;8.666;2023-03-04T11:49:29;100731.44;;;5.79;59.30
12963;BME280;6546;49.882;8.666;2023-03-04T11:52:08;100731.66;;;5.76;59.14
12963;BME280;6546;49.882;8.666;2023-03-04T11:54:43;100733.53;;;5.74;59.45
12963;BME280;6546;49.882;8.666;2023-03-04T11:57:25;100725.13;;;5.72;59.95
12963;BME280;6546;49.882;8.666;2023-03-04T12:00:10;100723.50;;;5.71;59.89
12963;BME280;6546;49.882;8.666;2023-03-04T12:02:42;100729.47;;;5.71;60.18
12963;BME280;6546;49.882;8.666;2023-03-04T12:05:36;100714.75;;;5.73;59.76
12963;BME280;6546;49.882;8.666;2023-03-04T12:08:20;100722.00;;;5.68;59.95
12963;BME280;6546;49.882;8.666;2023-03-04T12:10:57;100720.09;;;5.70;59.56
12963;BME280;6546;49.882;8.666;2023-03-04T12:14:01;100717.78;;;5.67;60.46
12963;BME280;6546;49.882;8.666;2023-03-04T12:16:47;100708.19;;;5.69;60.25
12963;BME280;6546;49.882;8.666;2023-03-04T12:19:26;100707.38;;;5.69;60.35
12963;BME280;6546;49.882;8.666;2023-03-04T12:22:07;100709.69;;;5.72;60.35
12963;BME280;6546;49.882;8.666;2023-03-04T12:24:53;100706.44;;;5.70;60.55
12963;BME280;6546;49.882;8.666;2023-03-04T12:27:33;100708.09;;;5.71;60.67
12963;BME280;6546;49.882;8.666;2023-03-04T12:30:15;100707.84;;;5.74;60.35
12963;BME280;6546;49.882;8.666;2023-03-04T12:32:45;100704.56;;;5.72;60.62
12963;BME280;6546;49.882;8.666;2023-03-04T12:35:27;100697.69;;;5.72;60.32
12963;BME280;6546;49.882;8.666;2023-03-04T12:38:05;100691.94;;;5.69;60.62
12963;BME280;6546;49.882;8.666;2023-03-04T12:40:42;100684.97;;;5.71;60.59
12963;BME280;6546;49.882;8.666;2023-03-04T12:46:26;100683.22;;;5.71;60.35
12963;BME280;6546;49.882;8.666;2023-03-04T12:49:17;100682.16;;;5.74;60.38
12963;BME280;6546;49.882;8.666;2023-03-04T12:51:53;100672.13;;;5.71;60.45
12963;BME280;6546;49.882;8.666;2023-03-04T12:54:28;100674.47;;;5.74;60.72
12963;BME280;6546;49.882;8.666;2023-03-04T12:57:00;100677.72;;;5.76;60.59
12963;BME280;6546;49.882;8.666;2023-03-04T12:59:31;100672.47;;;5.77;60.22
12963;BME280;6546;49.882;8.666;2023-03-04T13:02:13;100668.41;;;5.75;60.05
12963;BME280;6546;49.882;8.666;2023-03-04T13:04:52;100671.88;;;5.74;60.29
12963;BME280;6546;49.882;8.666;2023-03-04T13:07:36;100673.41;;;5.76;60.52
12963;BME280;6546;49.882;8.666;2023-03-04T13:10:09;100668.16;;;5.78;60.26
12963;BME280;6546;49.882;8.666;2023-03-04T13:12:46;100667.09;;;5.80;59.88
12963;BME280;6546;49.882;8.666;2023-03-04T13:15:33;100662.56;;;5.84;60.03
12963;BME280;6546;49.882;8.666;2023-03-04T13:18:03;100656.38;;;5.87;60.77
12963;BME280;6546;49.882;8.666;2023-03-04T13:21:05;100656.59;;;5.95;59.69
12963;BME280;6546;49.882;8.666;2023-03-04T13:23:32;100651.34;;;5.96;59.97
12963;BME280;6546;49.882;8.666;2023-03-04T13:26:16;100652.53;;;6.03;60.38